Time,TemperatureF,DewpointF,PressureIn,WindDirection,WindDirectionDegrees,WindSpeedMPH,WindSpeedGustMPH,Humidity,HourlyPrecipIn,Conditions,Clouds,dailyrainin,SoftwareType,DateUTC
2013-02-28 00:00:00,38.5,35.5,29.59,North,355,1.0,1.0,89,0.00,,,0.84,Wunderground v.1.15,2013-02-28 05:00:00,
2013-02-28 00:01:00,38.5,35.5,29.59,North,355,1.0,2.0,89,0.00,,,0.84,Wunderground v.1.15,2013-02-28 05:01:00,
2013-02-28 00:04:00,38.3,35.3,29.58,North,355,1.0,2.0,89,0.00,,,0.00,Wunderground v.1.15,2013-02-28 05:04:00,
2013-02-28 00:06:00,38.2,35.2,29.58,North,355,1.0,2.0,89,0.00,,,0.00,Wunderground v.1.15,2013-02-28 05:06:00,
2013-02-28 00:12:00,37.8,34.8,29.58,North,355,0.0,1.0,89,0.00,,,0.00,Wunderground v.1.15,2013-02-28 05:12:00,
2013-02-28 00:18:00,37.3,34.6,29.59,North,355,0.0,2.0,90,0.00,,,0.00,Wunderground v.1.15,2013-02-28 05:18:00,
2013-02-28 00:24:00,37.2,34.8,29.59,North,355,1.0,2.0,91,0.00,,,0.00,Wunderground v.1.15,2013-02-28 05:24:00,
2013-02-28 00:30:00,37.2,34.8,29.59,North,355,0.0,0.0,91,0.00,,,0.00,Wunderground v.1.15,2013-02-28 05:30:00,
2013-02-28 00:36:00,37.2,34.8,29.59,North,355,0.0,0.0,91,0.00,,,0.00,Wunderground v.1.15,2013-02-28 05:36:00,
2013-02-28 00:42:00,37.2,35.1,29.59,North,355,0.0,0.0,92,0.00,,,0.00,Wunderground v.1.15,2013-02-28 05:42:00,
2013-02-28 00:48:00,37.3,35.2,29.59,North,355,0.0,0.0,92,0.00,,,0.00,Wunderground v.1.15,2013-02-28 05:48:00,
2013-02-28 00:54:00,37.4,35.0,29.59,North,355,0.0,0.0,91,0.00,,,0.00,Wunderground v.1.15,2013-02-28 05:54:00,
2013-02-28 00:59:00,37.2,34.8,29.60,South,184,0.0,2.0,91,0.00,,,0.00,Wunderground v.1.15,2013-02-28 05:59:00,
2013-02-28 01:04:00,37.3,35.2,29.60,SW,222,1.0,2.0,92,0.00,,,0.00,Wunderground v.1.15,2013-02-28 06:04:00,
2013-02-28 01:10:00,37.4,35.3,29.60,SW,222,0.0,0.0,92,0.00,,,0.00,Wunderground v.1.15,2013-02-28 06:10:00,
2013-02-28 01:16:00,37.4,35.3,29.60,SW,222,0.0,0.0,92,0.00,,,0.00,Wunderground v.1.15,2013-02-28 06:16:00,
2013-02-28 01:21:00,37.5,35.4,29.60,SW,222,0.0,0.0,92,0.00,,,0.00,Wunderground v.1.15,2013-02-28 06:21:00,
2013-02-28 01:27:00,37.3,35.2,29.59,SW,222,0.0,1.0,92,0.00,,,0.00,Wunderground v.1.15,2013-02-28 06:27:00,
2013-02-28 01:32:00,37.0,34.9,29.60,SW,222,1.0,3.0,92,0.00,,,0.00,Wunderground v.1.15,2013-02-28 06:32:00,
2013-02-28 01:38:00,36.8,35.0,29.59,SW,222,1.0,3.0,93,0.00,,,0.00,Wunderground v.1.15,2013-02-28 06:38:00,
2013-02-28 01:44:00,36.8,35.0,29.60,SW,222,0.0,1.0,93,0.00,,,0.00,Wunderground v.1.15,2013-02-28 06:44:00,
2013-02-28 01:50:00,37.0,35.2,29.60,SW,222,0.0,0.0,93,0.00,,,0.00,Wunderground v.1.15,2013-02-28 06:50:00,
2013-02-28 01:56:00,37.1,35.3,29.60,SW,222,0.0,0.0,93,0.00,,,0.00,Wunderground v.1.15,2013-02-28 06:56:00,
2013-02-28 02:01:00,37.1,35.3,29.60,SW,222,0.0,0.0,93,0.00,,,0.00,Wunderground v.1.15,2013-02-28 07:01:00,
2013-02-28 02:07:00,37.2,35.4,29.59,SW,222,0.0,0.0,93,0.00,,,0.00,Wunderground v.1.15,2013-02-28 07:07:00,
2013-02-28 02:12:00,37.2,35.4,29.59,SW,222,0.0,0.0,93,0.00,,,0.00,Wunderground v.1.15,2013-02-28 07:12:00,
2013-02-28 02:18:00,37.2,35.1,29.59,SW,222,0.0,0.0,92,0.00,,,0.00,Wunderground v.1.15,2013-02-28 07:18:00,
2013-02-28 02:24:00,37.3,35.2,29.60,SW,222,0.0,0.0,92,0.00,,,0.00,Wunderground v.1.15,2013-02-28 07:24:00,
2013-02-28 02:29:00,37.3,35.2,29.59,SW,222,0.0,0.0,92,0.00,,,0.00,Wunderground v.1.15,2013-02-28 07:29:00,
2013-02-28 02:34:00,37.3,35.2,29.59,SW,222,0.0,0.0,92,0.00,,,0.00,Wunderground v.1.15,2013-02-28 07:34:00,
2013-02-28 02:39:00,37.1,35.0,29.59,SW,222,0.0,0.0,92,0.00,,,0.00,Wunderground v.1.15,2013-02-28 07:39:00,
2013-02-28 02:44:00,36.6,34.5,29.59,SW,222,0.0,2.0,92,0.00,,,0.00,Wunderground v.1.15,2013-02-28 07:44:00,
2013-02-28 02:50:00,36.4,34.6,29.59,SW,222,1.0,1.0,93,0.00,,,0.00,Wunderground v.1.15,2013-02-28 07:50:00,
2013-02-28 02:55:00,36.5,34.7,29.58,SW,235,0.0,2.0,93,0.00,,,0.00,Wunderground v.1.15,2013-02-28 07:55:00,
2013-02-28 03:00:00,36.5,34.9,29.58,SW,235,1.0,1.0,94,0.00,,,0.00,Wunderground v.1.15,2013-02-28 08:00:00,
2013-02-28 03:06:00,36.6,34.8,29.58,SW,235,0.0,1.0,93,0.00,,,0.00,Wunderground v.1.15,2013-02-28 08:06:00,
2013-02-28 03:12:00,36.8,35.0,29.59,SW,235,0.0,0.0,93,0.00,,,0.00,Wunderground v.1.15,2013-02-28 08:12:00,
2013-02-28 03:17:00,36.9,35.1,29.58,SW,235,0.0,0.0,93,0.00,,,0.00,Wunderground v.1.15,2013-02-28 08:17:00,
2013-02-28 03:23:00,36.9,34.8,29.59,SW,235,0.0,0.0,92,0.00,,,0.00,Wunderground v.1.15,2013-02-28 08:23:00,
2013-02-28 03:29:00,37.0,34.9,29.59,SW,235,0.0,0.0,92,0.00,,,0.00,Wunderground v.1.15,2013-02-28 08:29:00,
2013-02-28 03:34:00,37.0,34.9,29.59,SW,235,0.0,0.0,92,0.00,,,0.00,Wunderground v.1.15,2013-02-28 08:34:00,
2013-02-28 03:40:00,37.2,35.1,29.59,SW,235,0.0,0.0,92,0.00,,,0.00,Wunderground v.1.15,2013-02-28 08:40:00,
2013-02-28 03:46:00,37.2,35.1,29.59,SW,235,0.0,0.0,92,0.00,,,0.00,Wunderground v.1.15,2013-02-28 08:46:00,
2013-02-28 03:52:00,37.2,35.1,29.59,SW,235,0.0,0.0,92,0.00,,,0.00,Wunderground v.1.15,2013-02-28 08:52:00,
2013-02-28 03:57:00,37.3,35.2,29.59,SW,235,0.0,0.0,92,0.00,,,0.00,Wunderground v.1.15,2013-02-28 08:57:00,
2013-02-28 04:03:00,37.3,34.9,29.59,SW,235,0.0,0.0,91,0.00,,,0.00,Wunderground v.1.15,2013-02-28 09:03:00,
2013-02-28 04:08:00,37.2,34.8,29.59,SW,235,0.0,0.0,91,0.00,,,0.00,Wunderground v.1.15,2013-02-28 09:08:00,
2013-02-28 04:14:00,37.2,34.8,29.59,SW,235,0.0,0.0,91,0.00,,,0.00,Wunderground v.1.15,2013-02-28 09:14:00,
2013-02-28 04:20:00,37.2,35.1,29.59,SW,235,0.0,0.0,92,0.00,,,0.00,Wunderground v.1.15,2013-02-28 09:20:00,
2013-02-28 04:25:00,37.4,35.3,29.59,SW,235,0.0,0.0,92,0.00,,,0.00,Wunderground v.1.15,2013-02-28 09:25:00,
2013-02-28 04:31:00,37.4,35.3,29.59,SW,235,0.0,0.0,92,0.00,,,0.00,Wunderground v.1.15,2013-02-28 09:31:00,
2013-02-28 04:37:00,37.6,35.2,29.59,SW,235,0.0,0.0,91,0.00,,,0.00,Wunderground v.1.15,2013-02-28 09:37:00,
2013-02-28 04:43:00,37.6,35.2,29.59,SW,235,0.0,0.0,91,0.00,,,0.00,Wunderground v.1.15,2013-02-28 09:43:00,
2013-02-28 04:49:00,37.5,35.1,29.59,SW,235,0.0,0.0,91,0.00,,,0.00,Wunderground v.1.15,2013-02-28 09:49:00,
2013-02-28 04:54:00,37.3,34.9,29.59,SW,235,0.0,0.0,91,0.00,,,0.00,Wunderground v.1.15,2013-02-28 09:54:00,
2013-02-28 05:00:00,37.1,34.7,29.59,SW,235,0.0,0.0,91,0.00,,,0.00,Wunderground v.1.15,2013-02-28 10:00:00,
2013-02-28 05:06:00,37.0,34.9,29.59,SW,235,0.0,0.0,92,0.00,,,0.00,Wunderground v.1.15,2013-02-28 10:06:00,
2013-02-28 05:12:00,37.2,35.1,29.59,SW,235,0.0,0.0,92,0.00,,,0.00,Wunderground v.1.15,2013-02-28 10:12:00,
2013-02-28 05:18:00,37.2,34.8,29.59,SW,235,0.0,0.0,91,0.00,,,0.00,Wunderground v.1.15,2013-02-28 10:18:00,
2013-02-28 05:23:00,37.3,35.2,29.59,SW,235,0.0,0.0,92,0.00,,,0.00,Wunderground v.1.15,2013-02-28 10:23:00,
2013-02-28 05:29:00,37.5,35.4,29.58,SW,235,0.0,0.0,92,0.00,,,0.00,Wunderground v.1.15,2013-02-28 10:29:00,
2013-02-28 05:35:00,37.4,35.0,29.59,SW,235,0.0,0.0,91,0.00,,,0.00,Wunderground v.1.15,2013-02-28 10:35:00,
2013-02-28 05:41:00,37.4,35.0,29.59,SW,235,0.0,0.0,91,0.00,,,0.00,Wunderground v.1.15,2013-02-28 10:41:00,
2013-02-28 05:46:00,37.3,34.9,29.58,SW,235,0.0,0.0,91,0.00,,,0.00,Wunderground v.1.15,2013-02-28 10:46:00,
2013-02-28 05:52:00,37.3,35.2,29.59,SW,235,0.0,0.0,92,0.00,,,0.00,Wunderground v.1.15,2013-02-28 10:52:00,
2013-02-28 05:58:00,37.4,35.3,29.59,SW,235,0.0,0.0,92,0.00,,,0.00,Wunderground v.1.15,2013-02-28 10:58:00,
2013-02-28 06:04:00,37.4,35.3,29.59,SW,235,0.0,0.0,92,0.00,,,0.00,Wunderground v.1.15,2013-02-28 11:04:00,
2013-02-28 06:09:00,37.5,35.1,29.59,SW,235,0.0,0.0,91,0.00,,,0.00,Wunderground v.1.15,2013-02-28 11:09:00,
2013-02-28 06:14:00,37.5,35.1,29.59,SW,235,0.0,0.0,91,0.00,,,0.00,Wunderground v.1.15,2013-02-28 11:14:00,
2013-02-28 06:20:00,37.5,35.1,29.58,SW,235,0.0,0.0,91,0.00,,,0.00,Wunderground v.1.15,2013-02-28 11:20:00,
2013-02-28 06:25:00,37.6,35.2,29.58,SW,235,0.0,0.0,91,0.00,,,0.00,Wunderground v.1.15,2013-02-28 11:25:00,
2013-02-28 06:31:00,37.6,35.2,29.59,SW,235,0.0,0.0,91,0.00,,,0.00,Wunderground v.1.15,2013-02-28 11:31:00,
2013-02-28 06:37:00,37.5,35.1,29.59,SW,235,0.0,0.0,91,0.00,,,0.00,Wunderground v.1.15,2013-02-28 11:37:00,
2013-02-28 06:42:00,37.5,35.1,29.59,SW,235,0.0,0.0,91,0.00,,,0.00,Wunderground v.1.15,2013-02-28 11:42:00,
2013-02-28 06:48:00,37.5,35.1,29.59,SW,235,0.0,0.0,91,0.00,,,0.00,Wunderground v.1.15,2013-02-28 11:48:00,
2013-02-28 06:54:00,37.4,35.0,29.59,SW,235,0.0,0.0,91,0.00,,,0.00,Wunderground v.1.15,2013-02-28 11:54:00,
2013-02-28 07:00:00,37.4,35.0,29.59,SW,235,0.0,0.0,91,0.00,,,0.00,Wunderground v.1.15,2013-02-28 12:00:00,
2013-02-28 07:06:00,37.4,35.0,29.59,SW,235,0.0,0.0,91,0.00,,,0.00,Wunderground v.1.15,2013-02-28 12:06:00,
2013-02-28 07:12:00,37.5,35.1,29.59,SW,235,0.0,0.0,91,0.00,,,0.00,Wunderground v.1.15,2013-02-28 12:12:00,
2013-02-28 07:18:00,37.6,35.2,29.59,SW,235,0.0,0.0,91,0.00,,,0.00,Wunderground v.1.15,2013-02-28 12:18:00,
2013-02-28 07:24:00,37.7,35.3,29.59,SW,235,0.0,0.0,91,0.00,,,0.00,Wunderground v.1.15,2013-02-28 12:24:00,
2013-02-28 07:30:00,37.9,35.5,29.60,SW,235,0.0,0.0,91,0.00,,,0.00,Wunderground v.1.15,2013-02-28 12:30:00,
2013-02-28 07:35:00,37.9,35.5,29.59,SW,235,0.0,0.0,91,0.00,,,0.00,Wunderground v.1.15,2013-02-28 12:35:00,
2013-02-28 07:41:00,38.0,35.6,29.60,SW,235,0.0,0.0,91,0.00,,,0.00,Wunderground v.1.15,2013-02-28 12:41:00,
2013-02-28 07:46:00,38.1,36.0,29.60,SW,235,0.0,0.0,92,0.00,,,0.00,Wunderground v.1.15,2013-02-28 12:46:00,
2013-02-28 07:52:00,38.2,36.1,29.60,SW,235,0.0,0.0,92,0.00,,,0.00,Wunderground v.1.15,2013-02-28 12:52:00,
2013-02-28 07:58:00,38.3,36.2,29.60,SW,235,0.0,0.0,92,0.00,,,0.00,Wunderground v.1.15,2013-02-28 12:58:00,
2013-02-28 08:03:00,38.6,36.5,29.60,SW,235,0.0,0.0,92,0.00,,,0.00,Wunderground v.1.15,2013-02-28 13:03:00,
2013-02-28 08:09:00,38.8,36.9,29.60,SW,235,0.0,0.0,93,0.00,,,0.00,Wunderground v.1.15,2013-02-28 13:09:00,
2013-02-28 08:15:00,39.0,37.1,29.60,SW,235,0.0,0.0,93,0.00,,,0.00,Wunderground v.1.15,2013-02-28 13:15:00,
2013-02-28 08:20:00,39.3,37.2,29.60,SW,235,0.0,0.0,92,0.00,,,0.00,Wunderground v.1.15,2013-02-28 13:20:00,
2013-02-28 08:26:00,39.5,37.6,29.60,SW,235,0.0,0.0,93,0.00,,,0.00,Wunderground v.1.15,2013-02-28 13:26:00,
2013-02-28 08:31:00,39.8,37.7,29.60,SW,235,0.0,0.0,92,0.00,,,0.00,Wunderground v.1.15,2013-02-28 13:31:00,
2013-02-28 08:36:00,40.0,37.9,29.60,SW,235,0.0,0.0,92,0.00,,,0.00,Wunderground v.1.15,2013-02-28 13:36:00,
2013-02-28 08:42:00,40.1,38.0,29.60,SW,235,0.0,0.0,92,0.00,,,0.00,Wunderground v.1.15,2013-02-28 13:42:00,
2013-02-28 08:48:00,40.3,38.2,29.60,SW,235,0.0,0.0,92,0.00,,,0.00,Wunderground v.1.15,2013-02-28 13:48:00,
2013-02-28 08:54:00,40.5,38.6,29.60,SW,235,0.0,0.0,93,0.00,,,0.00,Wunderground v.1.15,2013-02-28 13:54:00,
2013-02-28 08:59:00,40.8,38.9,29.60,SW,235,0.0,0.0,93,0.00,,,0.00,Wunderground v.1.15,2013-02-28 13:59:00,
2013-02-28 09:05:00,41.2,39.3,29.60,SW,235,0.0,0.0,93,0.00,,,0.00,Wunderground v.1.15,2013-02-28 14:05:00,
2013-02-28 09:11:00,41.4,39.5,29.60,SW,235,0.0,0.0,93,0.00,,,0.00,Wunderground v.1.15,2013-02-28 14:11:00,
2013-02-28 09:16:00,41.7,39.8,29.60,SW,235,0.0,0.0,93,0.00,,,0.00,Wunderground v.1.15,2013-02-28 14:16:00,
2013-02-28 09:22:00,42.0,40.1,29.60,SW,235,0.0,0.0,93,0.00,,,0.00,Wunderground v.1.15,2013-02-28 14:22:00,
2013-02-28 09:27:00,42.2,40.0,29.60,SW,235,0.0,0.0,92,0.00,,,0.00,Wunderground v.1.15,2013-02-28 14:27:00,
2013-02-28 09:32:00,42.4,40.0,29.60,SW,235,0.0,0.0,91,0.00,,,0.00,Wunderground v.1.15,2013-02-28 14:32:00,
2013-02-28 09:38:00,42.6,39.9,29.60,SW,236,0.0,2.0,90,0.00,,,0.00,Wunderground v.1.15,2013-02-28 14:38:00,
2013-02-28 09:44:00,42.8,40.1,29.60,West,266,1.0,2.0,90,0.00,,,0.00,Wunderground v.1.15,2013-02-28 14:44:00,
2013-02-28 09:49:00,42.9,39.3,29.60,WNW,300,2.0,6.0,87,0.00,,,0.00,Wunderground v.1.15,2013-02-28 14:49:00,
2013-02-28 09:55:00,43.0,39.1,29.60,SW,221,3.0,4.0,86,0.00,,,0.00,Wunderground v.1.15,2013-02-28 14:55:00,
2013-02-28 10:00:00,43.0,39.1,29.60,WNW,284,3.0,4.0,86,0.00,,,0.00,Wunderground v.1.15,2013-02-28 15:00:00,
2013-02-28 10:06:00,43.1,38.9,29.59,NW,309,3.0,6.0,85,0.00,,,0.00,Wunderground v.1.15,2013-02-28 15:06:00,
2013-02-28 10:12:00,43.2,38.7,29.59,West,276,2.0,4.0,84,0.00,,,0.00,Wunderground v.1.15,2013-02-28 15:12:00,
2013-02-28 10:18:00,43.2,38.4,29.59,West,278,2.0,4.0,83,0.00,,,0.00,Wunderground v.1.15,2013-02-28 15:18:00,
2013-02-28 10:23:00,43.5,39.0,29.58,West,278,1.0,2.0,84,0.00,,,0.00,Wunderground v.1.15,2013-02-28 15:23:00,
2013-02-28 10:29:00,44.0,38.9,29.58,NW,313,1.0,6.0,82,0.00,,,0.00,Wunderground v.1.15,2013-02-28 15:29:00,
2013-02-28 10:34:00,44.3,38.5,29.58,NNE,15,1.0,5.0,80,0.00,,,0.00,Wunderground v.1.15,2013-02-28 15:34:00,
2013-02-28 10:39:00,44.4,38.6,29.58,North,5,2.0,5.0,80,0.00,,,0.00,Wunderground v.1.15,2013-02-28 15:39:00,
2013-02-28 10:45:00,44.4,38.6,29.58,NNW,327,1.0,5.0,80,0.00,,,0.00,Wunderground v.1.15,2013-02-28 15:45:00,
2013-02-28 10:51:00,44.6,38.8,29.58,NW,304,1.0,2.0,80,0.00,,,0.00,Wunderground v.1.15,2013-02-28 15:51:00,
2013-02-28 10:57:00,44.6,38.2,29.58,North,355,1.0,2.0,78,0.00,,,0.00,Wunderground v.1.15,2013-02-28 15:57:00,
2013-02-28 11:02:00,44.8,38.4,29.58,NNW,339,1.0,1.0,78,0.00,,,0.00,Wunderground v.1.15,2013-02-28 16:02:00,
2013-02-28 11:08:00,45.3,38.8,29.58,North,355,1.0,2.0,78,0.00,,,0.00,Wunderground v.1.15,2013-02-28 16:08:00,
2013-02-28 11:14:00,45.7,39.2,29.57,ENE,70,1.0,1.0,78,0.00,,,0.00,Wunderground v.1.15,2013-02-28 16:14:00,
2013-02-28 11:19:00,46.0,39.5,29.57,NNE,24,1.0,4.0,78,0.00,,,0.00,Wunderground v.1.15,2013-02-28 16:19:00,
2013-02-28 11:25:00,46.3,39.5,29.56,North,11,2.0,4.0,77,0.00,,,0.00,Wunderground v.1.15,2013-02-28 16:25:00,
2013-02-28 11:31:00,46.3,38.8,29.56,NW,323,2.0,2.0,75,0.00,,,0.00,Wunderground v.1.15,2013-02-28 16:31:00,
2013-02-28 11:36:00,46.3,39.1,29.56,WNW,283,2.0,5.0,76,0.00,,,0.00,Wunderground v.1.15,2013-02-28 16:36:00,
2013-02-28 11:41:00,46.0,38.5,29.56,WNW,288,2.0,2.0,75,0.00,,,0.00,Wunderground v.1.15,2013-02-28 16:41:00,
2013-02-28 11:47:00,46.4,38.9,29.56,WNW,290,1.0,4.0,75,0.00,,,0.00,Wunderground v.1.15,2013-02-28 16:47:00,
2013-02-28 11:52:00,46.9,38.3,29.55,NE,34,1.0,1.0,72,0.00,,,0.00,Wunderground v.1.15,2013-02-28 16:52:00,
2013-02-28 11:57:00,47.0,38.4,29.55,West,280,1.0,7.0,72,0.00,,,0.00,Wunderground v.1.15,2013-02-28 16:57:00,
2013-02-28 12:03:00,47.0,38.8,29.55,NW,309,2.0,3.0,73,0.00,,,0.00,Wunderground v.1.15,2013-02-28 17:03:00,
2013-02-28 12:09:00,47.5,39.3,29.55,West,279,2.0,4.0,73,0.00,,,0.00,Wunderground v.1.15,2013-02-28 17:09:00,
2013-02-28 12:14:00,47.7,38.0,29.54,NW,323,2.0,6.0,69,0.00,,,0.00,Wunderground v.1.15,2013-02-28 17:14:00,
2013-02-28 12:19:00,47.5,37.5,29.54,NNW,342,2.0,6.0,68,0.00,,,0.00,Wunderground v.1.15,2013-02-28 17:19:00,
2013-02-28 12:25:00,47.5,37.5,29.54,NNW,336,1.0,2.0,68,0.00,,,0.00,Wunderground v.1.15,2013-02-28 17:25:00,
2013-02-28 12:31:00,47.3,37.6,29.54,NNE,15,1.0,2.0,69,0.00,,,0.00,Wunderground v.1.15,2013-02-28 17:31:00,
2013-02-28 12:36:00,47.3,38.0,29.54,North,5,0.0,2.0,70,0.00,,,0.00,Wunderground v.1.15,2013-02-28 17:36:00,
2013-02-28 12:42:00,47.3,38.0,29.54,NW,317,1.0,1.0,70,0.00,,,0.00,Wunderground v.1.15,2013-02-28 17:42:00,
2013-02-28 12:48:00,47.3,37.6,29.54,North,360,1.0,2.0,69,0.00,,,0.00,Wunderground v.1.15,2013-02-28 17:48:00,
2013-02-28 12:54:00,47.4,37.7,29.53,NNE,13,2.0,3.0,69,0.00,,,0.00,Wunderground v.1.15,2013-02-28 17:54:00,
2013-02-28 12:59:00,47.6,37.9,29.53,NNW,327,2.0,3.0,69,0.00,,,0.00,Wunderground v.1.15,2013-02-28 17:59:00,
2013-02-28 13:05:00,47.6,37.6,29.53,NNW,328,2.0,3.0,68,0.00,,,0.00,Wunderground v.1.15,2013-02-28 18:05:00,
2013-02-28 13:11:00,47.5,37.1,29.53,NE,44,1.0,1.0,67,0.00,,,0.00,Wunderground v.1.15,2013-02-28 18:11:00,
2013-02-28 13:16:00,47.3,36.9,29.53,West,280,1.0,4.0,67,0.00,,,0.00,Wunderground v.1.15,2013-02-28 18:16:00,
2013-02-28 13:21:00,47.2,36.8,29.53,North,351,2.0,2.0,67,0.00,,,0.00,Wunderground v.1.15,2013-02-28 18:21:00,
2013-02-28 13:27:00,47.1,37.1,29.53,WNW,303,2.0,3.0,68,0.00,,,0.00,Wunderground v.1.15,2013-02-28 18:27:00,
2013-02-28 13:32:00,47.1,37.1,29.53,North,355,2.0,3.0,68,0.00,,,0.00,Wunderground v.1.15,2013-02-28 18:32:00,
2013-02-28 13:38:00,47.3,36.9,29.53,WNW,298,1.0,3.0,67,0.00,,,0.00,Wunderground v.1.15,2013-02-28 18:38:00,
2013-02-28 13:43:00,47.5,36.7,29.53,WNW,292,1.0,3.0,66,0.00,,,0.00,Wunderground v.1.15,2013-02-28 18:43:00,
2013-02-28 13:49:00,47.7,37.3,29.53,West,279,2.0,4.0,67,0.00,,,0.00,Wunderground v.1.15,2013-02-28 18:49:00,
2013-02-28 13:54:00,47.5,36.7,29.53,West,273,2.0,3.0,66,0.00,,,0.00,Wunderground v.1.15,2013-02-28 18:54:00,
2013-02-28 14:00:00,47.4,35.4,29.53,West,262,2.0,3.0,63,0.00,,,0.00,Wunderground v.1.15,2013-02-28 19:00:00,
2013-02-28 14:06:00,47.4,35.8,29.53,WSW,248,2.0,4.0,64,0.00,,,0.00,Wunderground v.1.15,2013-02-28 19:06:00,
2013-02-28 14:12:00,47.4,35.4,29.53,WNW,302,2.0,4.0,63,0.00,,,0.00,Wunderground v.1.15,2013-02-28 19:12:00,
2013-02-28 14:18:00,47.2,36.0,29.53,West,263,3.0,5.0,65,0.00,,,0.00,Wunderground v.1.15,2013-02-28 19:18:00,
2013-02-28 14:24:00,47.2,36.8,29.53,WNW,292,2.0,4.0,67,0.00,,,0.00,Wunderground v.1.15,2013-02-28 19:24:00,
2013-02-28 14:30:00,47.3,36.9,29.53,WNW,299,2.0,2.0,67,0.00,,,0.00,Wunderground v.1.15,2013-02-28 19:30:00,
2013-02-28 14:35:00,47.3,36.9,29.53,WNW,302,1.0,3.0,67,0.00,,,0.00,Wunderground v.1.15,2013-02-28 19:35:00,
2013-02-28 14:40:00,47.2,36.8,29.53,North,5,2.0,2.0,67,0.00,,,0.00,Wunderground v.1.15,2013-02-28 19:40:00,
2013-02-28 14:45:00,47.2,36.8,29.53,West,281,2.0,3.0,67,0.00,,,0.00,Wunderground v.1.15,2013-02-28 19:45:00,
2013-02-28 14:51:00,46.9,36.5,29.53,WNW,303,1.0,4.0,67,0.00,,,0.00,Wunderground v.1.15,2013-02-28 19:51:00,
2013-02-28 14:57:00,46.6,36.2,29.53,NW,314,2.0,6.0,67,0.00,,,0.00,Wunderground v.1.15,2013-02-28 19:57:00,
2013-02-28 15:02:00,46.3,35.9,29.53,WNW,283,2.0,2.0,67,0.00,,,0.00,Wunderground v.1.15,2013-02-28 20:02:00,
2013-02-28 15:08:00,46.2,36.6,29.53,West,279,1.0,2.0,69,0.00,,,0.00,Wunderground v.1.15,2013-02-28 20:08:00,
2013-02-28 15:13:00,46.1,36.1,29.53,West,279,1.0,1.0,68,0.00,,,0.00,Wunderground v.1.15,2013-02-28 20:13:00,
2013-02-28 15:19:00,46.0,36.4,29.53,West,279,1.0,1.0,69,0.00,,,0.00,Wunderground v.1.15,2013-02-28 20:19:00,
2013-02-28 15:24:00,46.1,36.1,29.53,West,279,0.0,2.0,68,0.00,,,0.00,Wunderground v.1.15,2013-02-28 20:24:00,
2013-02-28 15:30:00,46.1,36.9,29.53,West,279,0.0,0.0,70,0.00,,,0.00,Wunderground v.1.15,2013-02-28 20:30:00,
2013-02-28 15:35:00,46.0,36.8,29.53,West,279,0.0,1.0,70,0.00,,,0.00,Wunderground v.1.15,2013-02-28 20:35:00,
2013-02-28 15:40:00,46.0,37.1,29.53,West,278,1.0,1.0,71,0.00,,,0.00,Wunderground v.1.15,2013-02-28 20:40:00,
2013-02-28 15:46:00,45.9,36.7,29.53,WNW,282,2.0,3.0,70,0.00,,,0.00,Wunderground v.1.15,2013-02-28 20:46:00,
2013-02-28 15:52:00,45.6,35.3,29.53,NW,311,3.0,4.0,67,0.00,,,0.00,Wunderground v.1.15,2013-02-28 20:52:00,
2013-02-28 15:57:00,45.5,35.2,29.53,West,273,3.0,5.0,67,0.00,,,0.00,Wunderground v.1.15,2013-02-28 20:57:00,
2013-02-28 16:03:00,45.1,34.4,29.53,WNW,284,3.0,5.0,66,0.00,,,0.00,Wunderground v.1.15,2013-02-28 21:03:00,
2013-02-28 16:09:00,45.0,33.9,29.53,WNW,293,4.0,5.0,65,0.00,,,0.00,Wunderground v.1.15,2013-02-28 21:09:00,
2013-02-28 16:14:00,44.9,34.2,29.53,WNW,300,4.0,6.0,66,0.00,,,0.00,Wunderground v.1.15,2013-02-28 21:14:00,
2013-02-28 16:20:00,44.8,34.5,29.53,West,280,3.0,3.0,67,0.00,,,0.00,Wunderground v.1.15,2013-02-28 21:20:00,
2013-02-28 16:25:00,44.7,34.8,29.53,West,280,3.0,5.0,68,0.00,,,0.00,Wunderground v.1.15,2013-02-28 21:25:00,
2013-02-28 16:30:00,44.5,35.0,29.53,NW,325,3.0,3.0,69,0.00,,,0.00,Wunderground v.1.15,2013-02-28 21:30:00,
2013-02-28 16:35:00,44.4,34.9,29.53,West,275,4.0,7.0,69,0.00,,,0.00,Wunderground v.1.15,2013-02-28 21:35:00,
2013-02-28 16:41:00,44.2,35.0,29.53,NW,309,4.0,6.0,70,0.00,,,0.00,Wunderground v.1.15,2013-02-28 21:41:00,
2013-02-28 16:47:00,44.0,35.2,29.53,WNW,296,4.0,6.0,71,0.00,,,0.00,Wunderground v.1.15,2013-02-28 21:47:00,
2013-02-28 16:52:00,43.9,35.1,29.53,NW,314,4.0,10.0,71,0.00,,,0.00,Wunderground v.1.15,2013-02-28 21:52:00,
2013-02-28 16:58:00,43.7,34.9,29.53,West,269,4.0,10.0,71,0.00,,,0.00,Wunderground v.1.15,2013-02-28 21:58:00,
2013-02-28 17:03:00,43.6,34.8,29.53,WNW,284,4.0,4.0,71,0.00,,,0.00,Wunderground v.1.15,2013-02-28 22:03:00,
2013-02-28 17:09:00,43.5,34.7,29.53,WNW,294,3.0,6.0,71,0.00,,,0.00,Wunderground v.1.15,2013-02-28 22:09:00,
2013-02-28 17:15:00,43.4,34.6,29.53,WNW,302,3.0,5.0,71,0.00,,,0.00,Wunderground v.1.15,2013-02-28 22:15:00,
2013-02-28 17:21:00,43.3,34.9,29.53,West,280,3.0,3.0,72,0.00,,,0.00,Wunderground v.1.15,2013-02-28 22:21:00,
2013-02-28 17:27:00,43.3,34.5,29.54,WNW,296,3.0,8.0,71,0.00,,,0.00,Wunderground v.1.15,2013-02-28 22:27:00,
2013-02-28 17:33:00,43.2,34.4,29.54,NW,305,3.0,5.0,71,0.00,,,0.00,Wunderground v.1.15,2013-02-28 22:33:00,
2013-02-28 17:39:00,43.0,34.2,29.54,WNW,287,3.0,6.0,71,0.00,,,0.00,Wunderground v.1.15,2013-02-28 22:39:00,
2013-02-28 17:45:00,42.9,34.1,29.54,West,271,3.0,5.0,71,0.00,,,0.00,Wunderground v.1.15,2013-02-28 22:45:00,
2013-02-28 17:50:00,42.7,34.3,29.54,WNW,300,3.0,3.0,72,0.00,,,0.00,Wunderground v.1.15,2013-02-28 22:50:00,
2013-02-28 17:56:00,42.6,34.5,29.54,WNW,291,3.0,4.0,73,0.00,,,0.00,Wunderground v.1.15,2013-02-28 22:56:00,
2013-02-28 18:01:00,42.5,34.1,29.54,WNW,291,2.0,2.0,72,0.00,,,0.00,Wunderground v.1.15,2013-02-28 23:01:00,
2013-02-28 18:07:00,42.5,34.1,29.55,NW,304,1.0,4.0,72,0.00,,,0.00,Wunderground v.1.15,2013-02-28 23:07:00,
2013-02-28 18:13:00,42.5,34.1,29.55,West,281,1.0,3.0,72,0.00,,,0.00,Wunderground v.1.15,2013-02-28 23:13:00,
2013-02-28 18:19:00,42.5,34.1,29.55,WNW,288,1.0,4.0,72,0.00,,,0.00,Wunderground v.1.15,2013-02-28 23:19:00,
2013-02-28 18:24:00,42.4,34.0,29.55,West,281,2.0,2.0,72,0.00,,,0.00,Wunderground v.1.15,2013-02-28 23:24:00,
2013-02-28 18:29:00,42.4,34.0,29.55,WNW,288,2.0,3.0,72,0.00,,,0.00,Wunderground v.1.15,2013-02-28 23:29:00,
2013-02-28 18:35:00,42.3,33.9,29.55,West,269,1.0,2.0,72,0.00,,,0.00,Wunderground v.1.15,2013-02-28 23:35:00,
2013-02-28 18:41:00,42.3,34.3,29.55,West,278,1.0,1.0,73,0.00,,,0.00,Wunderground v.1.15,2013-02-28 23:41:00,
2013-02-28 18:47:00,42.3,33.9,29.55,West,278,1.0,2.0,72,0.00,,,0.00,Wunderground v.1.15,2013-02-28 23:47:00,
2013-02-28 18:53:00,42.1,33.7,29.55,WNW,284,1.0,2.0,72,0.00,,,0.00,Wunderground v.1.15,2013-02-28 23:53:00,
2013-02-28 18:59:00,42.0,33.6,29.56,West,279,2.0,3.0,72,0.00,,,0.00,Wunderground v.1.15,2013-02-28 23:59:00,
2013-02-28 19:05:00,41.9,33.5,29.56,WNW,289,2.0,3.0,72,0.00,,,0.00,Wunderground v.1.15,2013-03-01 00:05:00,
2013-02-28 19:11:00,41.9,33.9,29.56,WNW,289,1.0,1.0,73,0.00,,,0.00,Wunderground v.1.15,2013-03-01 00:11:00,
2013-02-28 19:17:00,41.8,33.4,29.56,WNW,282,1.0,3.0,72,0.00,,,0.00,Wunderground v.1.15,2013-03-01 00:17:00,
2013-02-28 19:22:00,41.8,33.4,29.56,WNW,282,1.0,2.0,72,0.00,,,0.00,Wunderground v.1.15,2013-03-01 00:22:00,
2013-02-28 19:29:00,41.8,33.4,29.56,WNW,284,1.0,2.0,72,0.00,,,0.00,Wunderground v.1.15,2013-03-01 00:29:00,
2013-02-28 19:34:00,41.8,33.4,29.56,WNW,295,1.0,3.0,72,0.00,,,0.00,Wunderground v.1.15,2013-03-01 00:34:00,
2013-02-28 19:39:00,41.7,33.3,29.56,West,280,1.0,4.0,72,0.00,,,0.00,Wunderground v.1.15,2013-03-01 00:39:00,
2013-02-28 19:45:00,41.7,33.3,29.56,WNW,302,2.0,3.0,72,0.00,,,0.00,Wunderground v.1.15,2013-03-01 00:45:00,
2013-02-28 19:51:00,41.6,33.2,29.56,West,270,2.0,2.0,72,0.00,,,0.00,Wunderground v.1.15,2013-03-01 00:51:00,
2013-02-28 19:56:00,41.6,33.2,29.56,WNW,291,1.0,2.0,72,0.00,,,0.00,Wunderground v.1.15,2013-03-01 00:56:00,
2013-02-28 20:02:00,41.6,33.6,29.56,WNW,291,1.0,1.0,73,0.00,,,0.00,Wunderground v.1.15,2013-03-01 01:02:00,
2013-02-28 20:08:00,41.5,33.5,29.56,WNW,291,1.0,2.0,73,0.00,,,0.00,Wunderground v.1.15,2013-03-01 01:08:00,
2013-02-28 20:14:00,41.5,33.5,29.56,WNW,291,1.0,2.0,73,0.00,,,0.00,Wunderground v.1.15,2013-03-01 01:14:00,
2013-02-28 20:20:00,41.6,33.2,29.57,WNW,298,1.0,1.0,72,0.00,,,0.00,Wunderground v.1.15,2013-03-01 01:20:00,
2013-02-28 20:26:00,41.5,33.5,29.57,NW,306,1.0,3.0,73,0.00,,,0.00,Wunderground v.1.15,2013-03-01 01:26:00,
2013-02-28 20:32:00,41.4,33.0,29.57,West,276,2.0,2.0,72,0.00,,,0.00,Wunderground v.1.15,2013-03-01 01:32:00,
2013-02-28 20:38:00,41.4,33.7,29.57,West,267,2.0,4.0,74,0.00,,,0.00,Wunderground v.1.15,2013-03-01 01:38:00,
2013-02-28 20:44:00,41.2,33.2,29.57,WNW,294,3.0,10.0,73,0.00,,,0.00,Wunderground v.1.15,2013-03-01 01:44:00,
2013-02-28 20:49:00,41.1,32.8,29.57,WNW,303,4.0,10.0,72,0.00,,,0.00,Wunderground v.1.15,2013-03-01 01:49:00,
2013-02-28 20:55:00,41.0,32.7,29.57,West,280,3.0,5.0,72,0.00,,,0.00,Wunderground v.1.15,2013-03-01 01:55:00,
2013-02-28 21:00:00,41.0,32.7,29.57,West,272,3.0,5.0,72,0.00,,,0.00,Wunderground v.1.15,2013-03-01 02:00:00,
2013-02-28 21:06:00,40.9,32.6,29.57,NW,311,3.0,6.0,72,0.00,,,0.00,Wunderground v.1.15,2013-03-01 02:06:00,
2013-02-28 21:11:00,40.8,32.8,29.57,WNW,282,3.0,3.0,73,0.00,,,0.00,Wunderground v.1.15,2013-03-01 02:11:00,
2013-02-28 21:17:00,40.8,32.8,29.57,WNW,299,3.0,6.0,73,0.00,,,0.00,Wunderground v.1.15,2013-03-01 02:17:00,
2013-02-28 21:22:00,40.6,32.6,29.57,WNW,288,3.0,3.0,73,0.00,,,0.00,Wunderground v.1.15,2013-03-01 02:22:00,
2013-02-28 21:28:00,40.6,32.6,29.57,West,267,2.0,4.0,73,0.00,,,0.00,Wunderground v.1.15,2013-03-01 02:28:00,
2013-02-28 21:34:00,40.5,32.9,29.57,WNW,300,2.0,3.0,74,0.00,,,0.00,Wunderground v.1.15,2013-03-01 02:34:00,
2013-02-28 21:39:00,40.5,32.5,29.57,NW,306,2.0,4.0,73,0.00,,,0.00,Wunderground v.1.15,2013-03-01 02:39:00,
2013-02-28 21:44:00,40.4,32.4,29.57,WNW,283,3.0,5.0,73,0.00,,,0.00,Wunderground v.1.15,2013-03-01 02:44:00,
2013-02-28 21:50:00,40.4,32.8,29.57,WNW,285,2.0,2.0,74,0.00,,,0.00,Wunderground v.1.15,2013-03-01 02:50:00,
2013-02-28 21:55:00,40.3,32.7,29.57,WNW,287,2.0,4.0,74,0.00,,,0.00,Wunderground v.1.15,2013-03-01 02:55:00,
2013-02-28 22:00:00,40.2,32.6,29.57,WNW,300,3.0,3.0,74,0.00,,,0.00,Wunderground v.1.15,2013-03-01 03:00:00,
2013-02-28 22:06:00,40.1,32.8,29.57,West,272,3.0,7.0,75,0.00,,,0.00,Wunderground v.1.15,2013-03-01 03:06:00,
2013-02-28 22:11:00,40.0,32.7,29.57,WNW,294,4.0,4.0,75,0.00,,,0.00,Wunderground v.1.15,2013-03-01 03:11:00,
2013-02-28 22:17:00,39.9,32.6,29.57,NW,305,3.0,4.0,75,0.00,,,0.00,Wunderground v.1.15,2013-03-01 03:17:00,
2013-02-28 22:23:00,39.9,32.6,29.57,WNW,292,2.0,3.0,75,0.00,,,0.00,Wunderground v.1.15,2013-03-01 03:23:00,
2013-02-28 22:29:00,39.9,32.6,29.58,WNW,282,2.0,3.0,75,0.00,,,0.00,Wunderground v.1.15,2013-03-01 03:29:00,
2013-02-28 22:35:00,39.9,32.6,29.57,NW,309,3.0,6.0,75,0.00,,,0.00,Wunderground v.1.15,2013-03-01 03:35:00,
2013-02-28 22:41:00,39.9,32.6,29.58,NW,309,3.0,5.0,75,0.00,,,0.00,Wunderground v.1.15,2013-03-01 03:41:00,
2013-02-28 22:46:00,39.9,32.6,29.58,NW,308,3.0,5.0,75,0.00,,,0.00,Wunderground v.1.15,2013-03-01 03:46:00,
2013-02-28 22:52:00,39.8,32.8,29.58,NW,308,3.0,3.0,76,0.00,,,0.00,Wunderground v.1.15,2013-03-01 03:52:00,
2013-02-28 22:59:00,39.8,33.2,29.58,WNW,290,2.0,3.0,77,0.00,,,0.00,Wunderground v.1.15,2013-03-01 03:59:00,
2013-02-28 23:04:00,39.7,33.1,29.58,NW,313,2.0,5.0,77,0.00,,,0.00,Wunderground v.1.15,2013-03-01 04:04:00,
2013-02-28 23:09:00,39.5,33.5,29.58,WNW,298,3.0,5.0,79,0.00,,,0.00,Wunderground v.1.15,2013-03-01 04:09:00,
2013-02-28 23:15:00,39.5,34.5,29.58,West,264,3.0,4.0,82,0.00,,,0.00,Wunderground v.1.15,2013-03-01 04:15:00,
2013-02-28 23:22:00,39.2,34.8,29.58,NW,304,2.0,3.0,84,0.00,,,0.00,Wunderground v.1.15,2013-03-01 04:22:00,
2013-02-28 23:28:00,38.9,35.1,29.58,NNW,333,2.0,5.0,86,0.00,,,0.00,Wunderground v.1.15,2013-03-01 04:28:00,
2013-02-28 23:33:00,38.6,35.1,29.58,North,355,3.0,5.0,87,0.00,,,0.01,Wunderground v.1.15,2013-03-01 04:33:00,
2013-02-28 23:38:00,38.4,35.2,29.58,WNW,298,2.0,5.0,88,0.00,,,0.01,Wunderground v.1.15,2013-03-01 04:38:00,
2013-02-28 23:44:00,38.1,35.1,29.58,WNW,300,2.0,5.0,89,0.00,,,0.01,Wunderground v.1.15,2013-03-01 04:44:00,
2013-02-28 23:50:00,37.8,35.1,29.58,NNE,13,2.0,2.0,90,0.00,,,0.02,Wunderground v.1.15,2013-03-01 04:50:00,
2013-02-28 23:56:00,37.6,34.9,29.58,WNW,301,2.0,5.0,90,0.00,,,0.02,Wunderground v.1.15,2013-03-01 04:56:00,